עמוד ראשי
METAR-TAF:

METAR-TAF

שדות תעופה :

קווג'לין, איי מרשל

קו רוחב: 08-43N, קו אורך: 167-44E, גובה: 3מטר

תצפית מזג אוויר נוכחית

הדו"ח נערך לפני 32דקות, בשעה 11:40 UTC
רוח 16קשר מכיוון מזרח/צפון-מזרח
טמפרטורת 29 צלסיוס
לחות 74%
לחץ 1012 hPa
ראות: 16.1קילומטר
עננים פזורים בגובה 2300רגל
עננים פזורים בגובה 3000רגל
עננים פזורים בגובה 3500רגל

METAR: PKWA 151140Z AUTO 06016KT 10SM SCT023 SCT030 SCT035 29/24 A2989 RMK AO2 T02850240

זמן: 00:12 (12:12 UTC)

תחזית

הדו"ח נערך לפני 41דקות, בשעה 11:31 UTC
תחזית בתוקף מ 15 ב 12 UTC עד 16 ב 12 UTC
רוח 14קשר מכיוון מזרח/צפון-מזרח
ראות: 10קילומטר
עננים פזורים בגובה 2200רגל
מ 15 ב 1900UTC
רוח 12קשר מכיוון מזרח/צפון-מזרח
ראות: 10קילומטר
עננים פזורים בגובה 2000רגל
עננים פזורים בגובה 4000רגל
ממטרים במרחב,

TAF: PKWA 151131Z 1512/1612 06014KT P6SM SCT022 FM151900 07012KT P6SM VCSH SCT020 SCT040

תצפיות ותחזיות מזג אוויר לגבי יותר מ- 4,000 שדות תעופה ברחבי העולם. דוחות METAR ו- TAF.

התחנות הזמינות מסומנות בנקודות צהובות ואדומות על גבי המפה.

העבר את העכבר לנקודה הצבעונית על מנת לראות את שם התחנה.

לאחר מכן, לחץ כדי לראות את תוכן ואת תחזיות מזג האוויר.

כדי לשנות את המפה: לחץ על הכפתורים הירוקים עם הפלוס השחור כדי להתקרב; על הכפתור הירוק עם המקף כדי להתרחק; או בחיצים הירוקים למפות סמוכות.


METAR-TAF: